Time;durP1;ratioP1;P1;durP2;ratioP2;P2;SDS_P1;SDS_P2;PMS_P1;PMS_P2;Temp;Humidity;BMP_temperature;BMP_pressure;BME280_temperature;BME280_humidity;BME280_pressure;Samples;Min_cycle;Max_cycle;Signal;HPM_P1;HPM_P2
2022/09/24 00:00:56;;;;;;;43.58;35.38;;;13.10;99.90;;;;;;4919867;28;20040;-78
2022/09/24 00:03:24;;;;;;;45.20;37.55;;;13.10;99.90;;;;;;4935171;29;20058;-78
2022/09/24 00:05:51;;;;;;;43.58;37.63;;;13.10;99.90;;;;;;4931917;29;20535;-78
2022/09/24 00:08:19;;;;;;;43.75;36.78;;;13.10;99.90;;;;;;4926451;28;20059;-78
2022/09/24 00:10:47;;;;;;;42.83;38.20;;;13.10;99.90;;;;;;4928447;28;20499;-78
2022/09/24 00:13:17;;;;;;;51.28;40.35;;;13.10;99.90;;;;;;4946337;28;20060;-78
2022/09/24 00:15:46;;;;;;;45.25;38.25;;;14.60;99.90;;;;;;4931656;28;20044;-78
2022/09/24 00:18:14;;;;;;;43.28;37.50;;;13.10;99.90;;;;;;4911668;28;20044;-78
2022/09/24 00:20:40;;;;;;;56.03;44.13;;;13.10;99.90;;;;;;4933802;28;20051;-78
2022/09/24 00:23:07;;;;;;;47.78;41.17;;;13.20;99.90;;;;;;4919982;28;20087;-78
2022/09/24 00:28:22;;;;;;;51.33;42.10;;;13.10;99.90;;;;;;4935556;29;20055;-79
2022/09/24 00:30:48;;;;;;;48.97;42.72;;;13.10;99.90;;;;;;4920358;28;20894;-80
2022/09/24 00:33:14;;;;;;;51.55;43.38;;;13.20;99.90;;;;;;4936155;29;20043;-77
2022/09/24 00:35:40;;;;;;;49.03;41.75;;;13.20;99.90;;;;;;4933680;29;20023;-77
2022/09/24 00:38:06;;;;;;;50.67;42.30;;;13.10;99.90;;;;;;4939807;28;20052;-78
2022/09/24 00:40:35;;;;;;;44.95;38.33;;;13.20;99.90;;;;;;4939769;28;20494;-77
2022/09/24 00:43:19;;;;;;;55.35;42.65;;;13.20;99.90;;;;;;4934580;29;20055;-77
2022/09/24 00:45:45;;;;;;;49.47;41.03;;;13.20;99.90;;;;;;4927272;28;20055;-78
2022/09/24 00:48:11;;;;;;;46.08;40.95;;;13.20;99.90;;;;;;4960005;28;20042;-78
2022/09/24 00:50:36;;;;;;;50.75;43.85;;;13.20;99.90;;;;;;4938162;28;20043;-78
2022/09/24 00:53:32;;;;;;;58.60;45.88;;;13.20;99.90;;;;;;4932646;28;20052;-78
2022/09/24 00:56:00;;;;;;;50.15;41.95;;;14.00;99.90;;;;;;4931902;28;20091;-78
2022/09/24 00:58:28;;;;;;;48.92;43.05;;;14.70;99.90;;;;;;4935023;28;20501;-79
2022/09/24 01:01:00;;;;;;;59.90;46.53;;;13.20;99.90;;;;;;4937017;28;20059;-79
2022/09/24 01:03:27;;;;;;;57.15;47.05;;;13.20;99.90;;;;;;4936155;29;20419;-78
2022/09/24 01:05:55;;;;;;;54.45;45.67;;;13.20;99.90;;;;;;4916594;28;20086;-78
2022/09/24 01:08:21;;;;;;;54.45;44.75;;;14.60;99.90;;;;;;4939011;29;20186;-78
2022/09/24 01:11:24;;;;;;;47.75;41.72;;;13.20;99.90;;;;;;4928122;28;20454;-78
2022/09/24 01:14:12;;;;;;;54.03;45.38;;;13.20;99.90;;;;;;4913581;29;20403;-78
2022/09/24 01:16:53;;;;;;;49.33;43.03;;;13.20;99.90;;;;;;4910005;28;20035;-78
2022/09/24 01:19:34;;;;;;;59.53;47.25;;;13.30;99.90;;;;;;4933736;28;20051;-78
2022/09/24 01:22:14;;;;;;;50.03;42.22;;;13.10;99.90;;;;;;4913669;28;20047;-78
2022/09/24 01:25:14;;;;;;;54.47;44.92;;;13.20;99.90;;;;;;4931982;28;20141;-78
2022/09/24 01:27:58;;;;;;;51.78;43.35;;;13.40;99.90;;;;;;4929925;28;20121;-78
2022/09/24 01:30:24;;;;;;;62.63;49.05;;;13.30;99.90;;;;;;4915447;28;20055;-78
2022/09/24 01:33:03;;;;;;;54.03;43.60;;;13.30;99.90;;;;;;4918873;28;20047;-78
2022/09/24 01:35:38;;;;;;;50.90;43.20;;;13.30;99.90;;;;;;4919440;29;20484;-78
2022/09/24 01:38:21;;;;;;;56.78;48.20;;;14.40;99.90;;;;;;4932826;28;20606;-78
2022/09/24 01:40:49;;;;;;;62.65;48.03;;;13.30;99.90;;;;;;4917846;29;20047;-78
2022/09/24 01:43:22;;;;;;;53.15;44.60;;;13.30;99.90;;;;;;4928842;29;20053;-78
2022/09/24 01:45:48;;;;;;;62.45;50.30;;;13.60;99.90;;;;;;4931832;28;20078;-79
2022/09/24 01:48:15;;;;;;;48.83;43.50;;;13.30;99.90;;;;;;4918768;28;20047;-78
2022/09/24 01:50:50;;;;;;;49.13;42.35;;;13.30;99.90;;;;;;4920057;28;20084;-78
2022/09/24 01:53:21;;;;;;;53.25;45.17;;;12.50;99.90;;;;;;4937127;28;20059;-78
2022/09/24 01:55:53;;;;;;;54.42;46.08;;;13.30;99.90;;;;;;4936074;28;20059;-79
2022/09/24 01:58:38;;;;;;;57.67;46.40;;;13.30;99.90;;;;;;4932882;28;20052;-78
2022/09/24 02:01:12;;;;;;;50.78;44.60;;;13.30;99.90;;;;;;4910932;29;20647;-78
2022/09/24 02:03:44;;;;;;;56.38;46.10;;;13.50;99.90;;;;;;4933597;29;20048;-78
2022/09/24 02:06:16;;;;;;;59.28;47.30;;;13.80;99.90;;;;;;4916965;28;20047;-78
2022/09/24 02:08:46;;;;;;;52.58;44.28;;;13.30;99.90;;;;;;4935679;28;20035;-79
2022/09/24 02:11:16;;;;;;;62.60;50.97;;;14.40;99.90;;;;;;4937501;29;20039;-78
2022/09/24 02:14:09;;;;;;;54.15;45.88;;;13.30;99.90;;;;;;4919261;28;20694;-78
2022/09/24 02:16:47;;;;;;;54.38;45.28;;;13.30;99.90;;;;;;4933809;28;20066;-79
2022/09/24 02:19:19;;;;;;;56.47;47.63;;;13.40;99.90;;;;;;4932173;28;20171;-79
2022/09/24 02:21:45;;;;;;;51.03;45.42;;;13.30;99.90;;;;;;4933175;29;20051;-79
2022/09/24 02:24:18;;;;;;;57.92;48.92;;;14.60;99.90;;;;;;4931643;29;20099;-78
2022/09/24 02:26:44;;;;;;;69.22;53.10;;;13.30;99.90;;;;;;4930825;28;20109;-78
2022/09/24 02:29:11;;;;;;;62.65;51.58;;;13.30;99.90;;;;;;4927442;28;20039;-78
2022/09/24 02:31:46;;;;;;;60.90;49.83;;;13.30;99.90;;;;;;4941733;28;20475;-78
2022/09/24 02:34:20;;;;;;;62.42;48.83;;;13.30;99.90;;;;;;4931929;28;20043;-79
2022/09/24 02:36:56;;;;;;;65.57;51.80;;;13.30;99.90;;;;;;4914599;28;20047;-78
2022/09/24 02:39:22;;;;;;;65.50;48.95;;;13.30;99.90;;;;;;4932619;29;20077;-78
2022/09/24 02:41:49;;;;;;;84.70;59.58;;;13.80;99.90;;;;;;4930513;28;20071;-78
2022/09/24 02:44:15;;;;;;;71.47;53.58;;;13.30;99.90;;;;;;4919073;29;20039;-78
2022/09/24 02:46:42;;;;;;;61.08;51.45;;;13.30;99.90;;;;;;4929284;28;20039;-78
2022/09/24 02:49:09;;;;;;;63.08;52.17;;;13.90;99.90;;;;;;4929770;28;20535;-78
2022/09/24 02:51:35;;;;;;;55.50;47.58;;;13.30;99.90;;;;;;4923659;28;20127;-78
2022/09/24 02:54:01;;;;;;;55.00;48.17;;;13.30;99.90;;;;;;4926847;28;20537;-77
2022/09/24 02:56:30;;;;;;;52.03;44.95;;;13.50;99.90;;;;;;4929243;28;20052;-78
2022/09/24 02:58:56;;;;;;;49.75;44.28;;;14.50;99.90;;;;;;4931631;28;20047;-77
2022/09/24 03:01:23;;;;;;;71.03;51.15;;;14.60;99.90;;;;;;4936219;28;20086;-78
2022/09/24 03:03:52;;;;;;;51.17;45.22;;;13.30;99.90;;;;;;4928726;28;20052;-78
2022/09/24 03:06:18;;;;;;;55.55;48.33;;;14.70;99.90;;;;;;4928886;28;20044;-78
2022/09/24 03:08:44;;;;;;;67.18;51.67;;;13.40;99.90;;;;;;4915910;28;20514;-79
2022/09/24 03:11:11;;;;;;;60.20;47.05;;;13.40;99.90;;;;;;4927027;28;20094;-77
2022/09/24 03:13:38;;;;;;;48.03;42.97;;;14.40;99.90;;;;;;4932849;28;20054;-79
2022/09/24 03:16:06;;;;;;;60.20;46.55;;;13.20;99.90;;;;;;4934996;28;20043;-79
2022/09/24 03:18:32;;;;;;;96.78;60.83;;;13.30;99.90;;;;;;4916796;28;20134;-80
2022/09/24 03:21:02;;;;;;;52.25;44.97;;;13.40;99.90;;;;;;4932546;29;20093;-80
2022/09/24 03:23:28;;;;;;;61.83;51.97;;;14.20;99.90;;;;;;4933992;29;20386;-81
2022/09/24 03:25:54;;;;;;;61.72;49.80;;;13.30;99.90;;;;;;4925269;28;20055;-78
2022/09/24 03:28:20;;;;;;;75.00;50.95;;;13.30;99.90;;;;;;4927827;28;20090;-78
2022/09/24 03:30:58;;;;;;;56.47;45.97;;;13.30;99.90;;;;;;4918943;29;20048;-78
2022/09/24 03:33:35;;;;;;;54.33;43.72;;;13.30;99.90;;;;;;4930107;29;20076;-79
2022/09/24 03:36:07;;;;;;;68.93;51.13;;;12.60;99.90;;;;;;4911655;28;20181;-79
2022/09/24 03:38:34;;;;;;;56.25;46.40;;;13.30;99.90;;;;;;4955054;28;20099;-78
2022/09/24 03:41:01;;;;;;;54.67;45.17;;;13.20;99.90;;;;;;4927367;28;20075;-79
2022/09/24 03:43:27;;;;;;;47.97;42.20;;;13.30;99.90;;;;;;4927372;29;20036;-78
2022/09/24 03:45:54;;;;;;;43.08;38.15;;;13.90;99.90;;;;;;4939791;28;20542;-78
2022/09/24 03:48:21;;;;;;;42.70;36.60;;;13.30;99.90;;;;;;4911275;28;20042;-79
2022/09/24 03:50:47;;;;;;;37.00;32.60;;;13.50;99.90;;;;;;4927036;29;20051;-78
2022/09/24 03:53:13;;;;;;;43.83;36.90;;;13.30;99.90;;;;;;4927527;29;20574;-79
2022/09/24 03:55:43;;;;;;;49.83;38.67;;;13.30;99.90;;;;;;4927067;29;20042;-78
2022/09/24 03:58:09;;;;;;;59.72;44.10;;;13.30;99.90;;;;;;4923996;28;20048;-78
2022/09/24 04:00:35;;;;;;;45.40;38.75;;;14.30;99.90;;;;;;4926884;29;20044;-79
2022/09/24 04:03:00;;;;;;;40.45;35.67;;;14.70;99.90;;;;;;4929944;28;20046;-78
2022/09/24 04:05:29;;;;;;;36.70;32.92;;;13.50;99.90;;;;;;4931256;29;20044;-79
2022/09/24 04:07:55;;;;;;;34.03;30.50;;;14.50;99.90;;;;;;4897791;28;20048;-77
2022/09/24 04:10:21;;;;;;;38.78;33.50;;;13.50;99.90;;;;;;4931873;29;20058;-77
2022/09/24 04:12:47;;;;;;;33.90;30.60;;;13.30;99.90;;;;;;4931370;28;20043;-77
2022/09/24 04:15:14;;;;;;;32.78;29.30;;;13.30;99.90;;;;;;4910364;28;20055;-77
2022/09/24 04:17:40;;;;;;;31.60;28.30;;;13.30;99.90;;;;;;4929179;28;20044;-78
2022/09/24 04:20:06;;;;;;;30.63;27.55;;;13.40;99.90;;;;;;4930940;28;20047;-77
2022/09/24 04:22:32;;;;;;;29.90;27.00;;;13.40;99.90;;;;;;4929241;28;20376;-77
2022/09/24 04:24:58;;;;;;;29.70;26.55;;;13.80;99.90;;;;;;4932445;28;20055;-77
2022/09/24 04:27:23;;;;;;;28.98;26.08;;;13.80;99.90;;;;;;4931697;28;20051;-77
2022/09/24 04:29:49;;;;;;;27.58;24.90;;;13.50;99.90;;;;;;4914072;28;20381;-78
2022/09/24 04:32:15;;;;;;;26.75;24.08;;;13.40;99.90;;;;;;4914322;28;20483;-78
2022/09/24 04:34:40;;;;;;;26.02;23.52;;;13.50;99.90;;;;;;4903823;29;20040;-78
2022/09/24 04:37:08;;;;;;;28.25;25.35;;;13.40;99.90;;;;;;4964188;28;20063;-79
2022/09/24 04:39:33;;;;;;;27.35;24.67;;;14.00;99.90;;;;;;4931760;28;20089;-78
2022/09/24 04:41:59;;;;;;;28.27;25.27;;;14.40;99.90;;;;;;4933946;28;20047;-77
2022/09/24 04:44:26;;;;;;;27.83;24.83;;;13.40;99.90;;;;;;4932187;28;20054;-78
2022/09/24 04:47:01;;;;;;;28.67;25.08;;;13.50;99.90;;;;;;4947332;28;20047;-79
2022/09/24 04:49:28;;;;;;;28.10;21.40;;;12.70;99.90;;;;;;4931298;29;20554;-79
2022/09/24 04:51:57;;;;;;;28.40;20.65;;;13.50;99.90;;;;;;4934466;28;20052;-80
2022/09/24 04:54:24;;;;;;;22.52;16.08;;;13.70;99.90;;;;;;4937263;29;20114;-78
2022/09/24 04:56:51;;;;;;;22.15;15.30;;;13.50;99.90;;;;;;4933292;28;20373;-78
2022/09/24 04:59:17;;;;;;;21.30;13.88;;;13.50;99.90;;;;;;4932758;28;20508;-78
2022/09/24 05:01:43;;;;;;;15.10;11.65;;;13.50;99.90;;;;;;4944098;22;20050;-78
2022/09/24 05:04:09;;;;;;;16.90;11.25;;;13.70;99.90;;;;;;4935851;28;20843;-77
2022/09/24 05:06:35;;;;;;;22.40;10.95;;;13.50;99.90;;;;;;4953481;28;20047;-78
2022/09/24 05:09:01;;;;;;;18.13;9.00;;;14.70;99.90;;;;;;4953179;28;20047;-78
2022/09/24 05:11:29;;;;;;;16.77;7.65;;;13.50;99.90;;;;;;4985555;28;20047;-78
2022/09/24 05:13:55;;;;;;;11.90;6.05;;;13.40;99.90;;;;;;4952931;28;20061;-78
2022/09/24 05:16:21;;;;;;;19.13;6.47;;;13.50;99.90;;;;;;4956649;28;20063;-78
2022/09/24 05:18:48;;;;;;;12.80;4.80;;;13.50;99.90;;;;;;4959220;28;20039;-78
2022/09/24 05:21:14;;;;;;;12.32;4.47;;;13.50;99.90;;;;;;4936802;28;20051;-78
2022/09/24 05:23:40;;;;;;;8.82;3.60;;;14.90;99.90;;;;;;4949761;29;20039;-79
2022/09/24 05:28:51;;;;;;;14.07;3.55;;;14.30;99.90;;;;;;4957187;28;20047;-79
2022/09/24 05:31:19;;;;;;;7.10;2.65;;;13.50;99.90;;;;;;4947712;28;20035;-78
2022/09/24 05:33:45;;;;;;;7.65;1.80;;;13.50;99.90;;;;;;4932971;29;20529;-77
2022/09/24 05:36:11;;;;;;;7.35;1.58;;;14.80;99.90;;;;;;4932850;28;20043;-77
2022/09/24 05:38:36;;;;;;;7.28;1.75;;;13.50;99.90;;;;;;4947948;28;20071;-77
2022/09/24 05:41:02;;;;;;;7.82;2.03;;;13.80;99.90;;;;;;4933170;28;20074;-77
2022/09/24 05:43:28;;;;;;;6.15;1.33;;;13.50;99.90;;;;;;4947662;29;20043;-78
2022/09/24 05:45:55;;;;;;;7.47;1.52;;;14.00;99.90;;;;;;4948235;28;20050;-77
2022/09/24 05:48:21;;;;;;;9.07;1.55;;;15.00;99.90;;;;;;4948795;28;20089;-77
2022/09/24 05:50:47;;;;;;;8.70;1.25;;;13.40;99.90;;;;;;4931676;28;20431;-78
2022/09/24 05:53:12;;;;;;;10.25;1.70;;;13.40;99.90;;;;;;4947167;29;20364;-77
2022/09/24 05:55:38;;;;;;;9.90;1.40;;;14.00;99.90;;;;;;4947613;28;20491;-77
2022/09/24 05:58:09;;;;;;;9.02;1.25;;;12.70;99.90;;;;;;4946469;28;20042;-77
2022/09/24 06:00:35;;;;;;;8.77;1.52;;;14.00;99.90;;;;;;4946953;28;20134;-77
2022/09/24 06:03:13;;;;;;;11.57;1.45;;;14.80;99.90;;;;;;4930785;28;20074;-77
2022/09/24 06:05:50;;;;;;;8.05;1.45;;;13.40;99.90;;;;;;4946095;28;20083;-77
2022/09/24 06:08:17;;;;;;;14.38;1.83;;;13.40;99.90;;;;;;4926494;28;20454;-78
2022/09/24 06:10:46;;;;;;;10.77;1.65;;;13.40;99.90;;;;;;4948397;28;20074;-77
2022/09/24 06:13:13;;;;;;;8.75;1.52;;;13.40;99.90;;;;;;4962122;28;20115;-77
2022/09/24 06:15:40;;;;;;;12.30;1.45;;;13.40;99.90;;;;;;4945143;28;20119;-77
2022/09/24 06:18:05;;;;;;;9.32;1.23;;;13.40;99.90;;;;;;4945229;28;20054;-77
2022/09/24 06:20:32;;;;;;;13.70;1.60;;;13.40;99.90;;;;;;4946853;28;20433;-78
2022/09/24 06:22:58;;;;;;;7.05;1.20;;;14.50;99.90;;;;;;4945123;28;20557;-77
2022/09/24 06:25:25;;;;;;;9.15;1.25;;;14.20;99.90;;;;;;4945155;28;20051;-78
2022/09/24 06:28:02;;;;;;;13.27;2.00;;;13.40;99.90;;;;;;4927805;28;20051;-78
2022/09/24 06:30:33;;;;;;;12.07;1.45;;;13.30;99.90;;;;;;4931066;28;20061;-78
2022/09/24 06:33:05;;;;;;;9.60;2.35;;;13.30;99.90;;;;;;4952735;28;20080;-78
2022/09/24 06:35:34;;;;;;;11.32;1.75;;;13.30;99.90;;;;;;4948828;28;20418;-77
2022/09/24 06:37:59;;;;;;;10.75;1.80;;;13.30;99.90;;;;;;4933706;28;20040;-77
2022/09/24 06:40:25;;;;;;;9.07;1.88;;;13.30;99.90;;;;;;4952086;28;20112;-78
2022/09/24 06:42:52;;;;;;;11.85;1.73;;;13.30;99.90;;;;;;4597412;28;10000295;-77
2022/09/24 06:45:24;;;;;;;10.75;2.20;;;13.30;99.90;;;;;;4955959;28;20035;-78
2022/09/24 06:47:58;;;;;;;7.70;1.40;;;13.30;99.90;;;;;;4941573;28;20059;-77
2022/09/24 06:50:33;;;;;;;10.20;1.58;;;13.30;99.90;;;;;;4943502;28;21851;-78
2022/09/24 06:52:59;;;;;;;11.48;2.00;;;13.30;99.90;;;;;;4953206;28;20077;-78
2022/09/24 06:55:25;;;;;;;16.88;2.03;;;13.30;99.90;;;;;;4939934;28;20039;-79
2022/09/24 06:58:05;;;;;;;12.65;2.20;;;13.30;99.90;;;;;;4926639;28;20039;-77
2022/09/24 07:00:31;;;;;;;23.33;9.95;;;13.40;99.90;;;;;;4947724;28;20047;-77
2022/09/24 07:02:56;;;;;;;11.25;4.40;;;13.40;99.90;;;;;;4957831;28;20303;-79
2022/09/24 07:05:22;;;;;;;14.75;2.63;;;13.40;99.90;;;;;;4962953;28;20150;-78
2022/09/24 07:07:47;;;;;;;11.80;2.42;;;13.40;99.90;;;;;;4952274;28;20038;-77
2022/09/24 07:10:14;;;;;;;11.23;2.30;;;13.40;99.90;;;;;;4950030;28;20083;-78
2022/09/24 07:12:43;;;;;;;10.27;1.95;;;13.40;99.90;;;;;;4950808;28;20117;-78
2022/09/24 07:15:10;;;;;;;15.88;2.63;;;13.40;99.90;;;;;;4944947;28;20084;-77
2022/09/24 07:17:35;;;;;;;14.40;2.42;;;13.40;99.90;;;;;;4925958;28;20157;-77
2022/09/24 07:20:03;;;;;;;20.27;1.73;;;13.40;99.90;;;;;;4927248;29;20089;-77
2022/09/24 07:22:29;;;;;;;12.98;1.92;;;13.40;99.90;;;;;;4928603;28;20039;-77
2022/09/24 07:24:55;;;;;;;15.40;2.17;;;13.50;99.90;;;;;;4943825;29;20788;-78
2022/09/24 07:27:21;;;;;;;15.13;2.03;;;13.50;99.90;;;;;;4945330;28;20112;-77
2022/09/24 07:29:48;;;;;;;13.77;5.88;;;13.50;99.90;;;;;;4944864;28;20043;-78
2022/09/24 07:32:16;;;;;;;20.42;9.25;;;13.50;99.90;;;;;;4928994;29;20079;-78
2022/09/24 07:34:44;;;;;;;17.98;3.17;;;14.40;99.90;;;;;;4950157;28;20043;-80
2022/09/24 07:37:09;;;;;;;12.57;1.85;;;13.50;99.90;;;;;;4946095;28;20097;-79
2022/09/24 07:39:35;;;;;;;15.60;2.38;;;13.50;99.90;;;;;;4947638;28;20101;-79
2022/09/24 07:42:01;;;;;;;13.85;1.52;;;13.60;99.90;;;;;;4938580;28;20047;-79
2022/09/24 07:44:28;;;;;;;18.65;2.42;;;13.60;99.90;;;;;;4953108;28;20051;-78
2022/09/24 07:46:54;;;;;;;9.48;1.40;;;13.60;99.90;;;;;;4929950;28;20044;-78
2022/09/24 07:49:21;;;;;;;7.90;1.38;;;13.60;99.90;;;;;;4933599;28;20055;-78
2022/09/24 07:51:48;;;;;;;11.70;1.85;;;13.60;99.90;;;;;;4953123;28;20062;-74
2022/09/24 07:54:14;;;;;;;12.23;1.65;;;13.70;99.90;;;;;;4952025;28;20055;-75
2022/09/24 07:56:39;;;;;;;14.23;2.00;;;13.70;99.90;;;;;;4948847;28;20513;-77
2022/09/24 07:59:06;;;;;;;13.25;2.22;;;13.70;99.90;;;;;;4950251;28;20055;-76
2022/09/24 08:01:33;;;;;;;9.75;1.85;;;13.70;99.90;;;;;;4949490;28;20065;-76
2022/09/24 08:03:59;;;;;;;11.90;1.90;;;13.70;99.90;;;;;;4950709;28;20078;-77
2022/09/24 08:06:25;;;;;;;10.75;2.63;;;13.70;99.90;;;;;;4950349;28;20054;-77
2022/09/24 08:08:55;;;;;;;14.23;4.10;;;13.70;99.90;;;;;;4952405;28;20047;-76
2022/09/24 08:11:21;;;;;;;10.48;2.58;;;13.70;99.90;;;;;;4949045;28;20051;-78
2022/09/24 08:13:47;;;;;;;11.82;1.70;;;13.70;99.90;;;;;;4953779;28;20055;-76
2022/09/24 08:16:13;;;;;;;10.27;1.55;;;13.70;99.90;;;;;;4951274;28;20059;-79
2022/09/24 08:18:42;;;;;;;9.00;1.50;;;13.70;99.90;;;;;;4952678;28;20047;-73
2022/09/24 08:21:10;;;;;;;11.25;1.70;;;13.70;99.90;;;;;;4945093;28;20121;-76
2022/09/24 08:23:37;;;;;;;12.45;2.08;;;13.60;99.90;;;;;;4952704;28;20667;-77
2022/09/24 08:26:03;;;;;;;18.00;2.00;;;13.70;99.90;;;;;;4930299;28;20419;-78
2022/09/24 08:28:30;;;;;;;12.35;2.17;;;13.60;99.90;;;;;;4953825;28;20041;-78
2022/09/24 08:31:06;;;;;;;8.05;1.60;;;13.60;99.90;;;;;;4949673;28;20039;-76
2022/09/24 08:33:32;;;;;;;17.50;1.98;;;13.70;99.90;;;;;;4951988;28;20054;-76
2022/09/24 08:36:02;;;;;;;8.57;1.25;;;13.70;99.90;;;;;;4938273;28;20047;-79
2022/09/24 08:38:28;;;;;;;9.52;2.30;;;13.70;99.90;;;;;;4953713;28;20066;-78
2022/09/24 08:41:11;;;;;;;15.60;1.58;;;13.60;99.90;;;;;;4943153;28;20047;-77
2022/09/24 08:44:03;;;;;;;8.15;1.20;;;13.70;99.90;;;;;;4949105;28;20047;-76
2022/09/24 08:49:48;;;;;;;15.98;1.20;;;13.70;99.90;;;;;;4954994;28;20047;-77
2022/09/24 08:52:38;;;;;;;15.82;2.25;;;13.60;99.90;;;;;;4955263;28;20093;-77
2022/09/24 08:55:20;;;;;;;18.52;5.53;;;13.70;99.90;;;;;;4932140;28;20217;-77
2022/09/24 08:58:16;;;;;;;15.88;7.55;;;13.70;99.90;;;;;;4929324;28;20054;-78
2022/09/24 09:00:50;;;;;;;15.10;2.63;;;13.70;99.90;;;;;;4933173;28;20058;-79
2022/09/24 09:03:34;;;;;;;10.50;1.40;;;13.70;99.90;;;;;;4946544;28;20055;-79
2022/09/24 09:06:18;;;;;;;8.23;1.27;;;13.80;99.90;;;;;;4931162;28;20139;-78
2022/09/24 09:09:11;;;;;;;9.77;1.95;;;13.80;99.90;;;;;;4928638;28;20062;-79
2022/09/24 09:11:39;;;;;;;14.60;1.65;;;13.80;99.90;;;;;;4950455;28;20089;-81
2022/09/24 09:14:26;;;;;;;8.07;1.25;;;13.80;99.90;;;;;;4944215;28;20466;-76
2022/09/24 09:16:57;;;;;;;11.05;1.85;;;13.90;99.90;;;;;;4966103;28;20736;-77
2022/09/24 09:19:29;;;;;;;11.70;1.60;;;13.90;99.90;;;;;;5388959;23;20554;-75
2022/09/24 09:22:15;;;;;;;11.15;1.48;;;13.80;99.90;;;;;;4902374;29;20106;-76
2022/09/24 09:24:46;;;;;;;8.85;1.25;;;13.90;99.90;;;;;;4904507;29;20047;-75
2022/09/24 09:27:16;;;;;;;15.55;1.35;;;13.90;99.90;;;;;;4892042;28;20056;-76
2022/09/24 09:29:50;;;;;;;8.15;1.60;;;13.90;99.90;;;;;;4908125;28;20079;-75
2022/09/24 09:32:19;;;;;;;10.73;1.63;;;13.90;99.90;;;;;;4909015;29;20048;-77
2022/09/24 09:34:51;;;;;;;8.05;1.85;;;13.90;99.90;;;;;;4909059;28;20098;-75
2022/09/24 09:37:26;;;;;;;14.85;2.03;;;13.90;99.90;;;;;;4909385;29;20071;-78
2022/09/24 09:40:10;;;;;;;11.60;1.70;;;13.90;99.90;;;;;;4892159;28;20040;-80
2022/09/24 09:42:39;;;;;;;10.52;1.63;;;13.90;99.90;;;;;;4905575;29;20036;-78
2022/09/24 09:45:13;;;;;;;16.70;1.50;;;13.90;99.90;;;;;;4909252;28;20044;-81
2022/09/24 09:47:45;;;;;;;9.90;1.77;;;13.90;99.90;;;;;;4903840;28;20127;-81
2022/09/24 09:50:27;;;;;;;14.57;2.03;;;13.90;99.90;;;;;;4893487;29;20110;-80
2022/09/24 09:52:53;;;;;;;8.68;1.60;;;13.90;99.90;;;;;;4909390;28;20194;-76
2022/09/24 09:55:28;;;;;;;11.70;1.52;;;13.90;99.90;;;;;;4890042;29;20059;-77
2022/09/24 09:58:21;;;;;;;98.72;8.45;;;13.90;99.90;;;;;;4892539;29;20102;-77
2022/09/24 10:01:06;;;;;;;14.80;1.67;;;13.90;99.90;;;;;;4894696;28;20055;-78
2022/09/24 10:03:48;;;;;;;8.65;1.33;;;13.90;99.90;;;;;;4902276;29;20044;-81
2022/09/24 10:06:31;;;;;;;32.80;3.03;;;13.90;99.90;;;;;;4900031;29;20056;-78
2022/09/24 10:09:10;;;;;;;8.32;1.30;;;13.90;99.90;;;;;;4906457;29;20518;-76
2022/09/24 10:11:36;;;;;;;15.68;2.80;;;14.30;99.90;;;;;;4924364;28;20117;-75
2022/09/24 10:14:03;;;;;;;14.00;3.17;;;13.90;99.90;;;;;;4908498;29;20135;-75
2022/09/24 10:16:29;;;;;;;8.85;1.90;;;13.90;99.90;;;;;;4916093;28;20115;-76
2022/09/24 10:18:55;;;;;;;7.53;1.65;;;13.90;99.90;;;;;;4907758;28;20140;-76
2022/09/24 10:21:33;;;;;;;7.93;1.40;;;13.90;99.90;;;;;;4921753;28;21688;-75
2022/09/24 10:24:01;;;;;;;10.75;1.70;;;13.90;99.90;;;;;;4906278;28;20044;-77
2022/09/24 10:26:38;;;;;;;7.63;1.20;;;13.90;99.90;;;;;;4876589;29;20044;-76
2022/09/24 10:31:53;;;;;;;9.75;1.83;;;13.90;99.90;;;;;;4890142;29;20056;-76
2022/09/24 10:34:25;;;;;;;7.97;1.02;;;13.90;99.90;;;;;;4874485;28;20044;-76
2022/09/24 10:37:00;;;;;;;6.25;1.42;;;13.90;99.90;;;;;;4902249;29;20086;-77
2022/09/24 10:39:26;;;;;;;9.15;1.27;;;13.90;99.90;;;;;;4907091;29;20047;-75
2022/09/24 10:41:54;;;;;;;12.63;1.92;;;13.90;99.90;;;;;;4909317;28;20048;-76
2022/09/24 10:44:20;;;;;;;7.03;1.30;;;14.00;99.90;;;;;;4906078;29;20050;-76
2022/09/24 10:47:06;;;;;;;7.60;1.13;;;14.00;99.90;;;;;;4890626;29;20048;-75
2022/09/24 10:49:59;;;;;;;7.88;0.80;;;14.00;99.90;;;;;;4907178;29;20122;-76
2022/09/24 10:52:58;;;;;;;7.25;3.15;;;14.00;99.90;;;;;;4901512;28;20384;-79
2022/09/24 10:55:52;;;;;;;7.93;2.50;;;14.00;99.90;;;;;;4887886;29;20044;-77
2022/09/24 10:58:37;;;;;;;;;;;13.90;99.90;;;;;;4920375;28;20391;-77
2022/09/24 11:01:25;;;;;;;8.37;0.80;;;14.00;99.90;;;;;;4905272;29;20362;-76
2022/09/24 11:04:17;;;;;;;4.47;0.82;;;13.90;99.90;;;;;;4902354;28;20301;-76
2022/09/24 11:07:03;;;;;;;4.38;0.75;;;14.00;99.90;;;;;;4911515;28;20119;-76
2022/09/24 11:09:42;;;;;;;3.55;0.88;;;14.00;99.90;;;;;;4906096;29;20058;-76
2022/09/24 11:12:13;;;;;;;4.35;0.68;;;14.00;99.90;;;;;;4906663;28;20040;-76
2022/09/24 11:15:03;;;;;;;7.22;0.70;;;14.00;99.90;;;;;;4892654;29;20155;-75
2022/09/24 11:17:54;;;;;;;7.22;1.13;;;14.00;99.90;;;;;;4933905;28;20095;-76
2022/09/24 11:20:28;;;;;;;11.00;1.75;;;14.00;99.90;;;;;;4904652;28;20515;-76
2022/09/24 11:23:14;;;;;;;7.82;0.93;;;14.00;99.90;;;;;;4908091;29;20044;-76
2022/09/24 11:25:43;;;;;;;;;;;14.00;99.90;;;;;;4902600;28;20491;-76
2022/09/24 11:28:36;;;;;;;14.65;6.15;;;14.00;99.90;;;;;;4905001;29;19927;-77
2022/09/24 11:38:53;;;;;;;12.88;1.65;;;13.60;99.90;;;;;;4900791;28;20709;-75
2022/09/24 11:41:51;;;;;;;8.65;1.55;;;14.00;99.90;;;;;;4906997;28;20427;-83
2022/09/24 11:44:51;;;;;;;7.63;1.48;;;14.00;99.90;;;;;;4907415;28;20047;-84
2022/09/24 11:48:01;;;;;;;8.25;1.38;;;14.00;99.90;;;;;;4908671;28;20040;-78
2022/09/24 11:50:33;;;;;;;8.73;1.25;;;14.10;99.90;;;;;;4944186;28;20526;-80
2022/09/24 11:53:09;;;;;;;8.77;1.63;;;14.10;99.90;;;;;;4928782;28;20763;-79
2022/09/24 11:55:55;;;;;;;10.43;2.38;;;14.10;99.90;;;;;;4923108;28;20130;-78
2022/09/24 11:58:50;;;;;;;7.65;1.15;;;14.10;99.90;;;;;;4908125;28;20048;-79
2022/09/24 12:01:21;;;;;;;;;;;14.10;99.90;;;;;;4904935;29;20502;-77
2022/09/24 12:03:47;;;;;;;6.10;1.13;;;14.20;99.90;;;;;;4888380;29;19919;-78
2022/09/24 12:06:23;;;;;;;6.70;0.80;;;14.30;99.90;;;;;;4907057;29;20361;-76
2022/09/24 12:09:16;;;;;;;10.02;1.20;;;14.30;99.90;;;;;;4905875;28;20098;-77
2022/09/24 12:11:54;;;;;;;7.57;0.68;;;14.40;99.90;;;;;;4903602;28;20059;-80
2022/09/24 12:14:29;;;;;;;4.38;0.73;;;13.60;99.90;;;;;;4908772;28;20332;-76
2022/09/24 12:17:04;;;;;;;12.30;1.25;;;14.50;99.90;;;;;;4904622;29;20154;-77
2022/09/24 12:19:36;;;;;;;10.10;1.15;;;14.50;99.90;;;;;;4906316;28;20072;-76
2022/09/24 12:22:04;;;;;;;4.75;1.00;;;14.50;99.90;;;;;;4905760;28;20045;-76
2022/09/24 12:24:53;;;;;;;5.75;0.77;;;14.50;99.90;;;;;;4909349;29;20160;-76
2022/09/24 12:27:27;;;;;;;7.10;0.90;;;14.50;99.90;;;;;;4906629;28;20168;-77
2022/09/24 12:33:20;;;;;;;5.30;1.05;;;14.50;99.90;;;;;;4909736;28;20048;-77
2022/09/24 12:35:54;;;;;;;4.45;1.42;;;14.50;99.90;;;;;;4892630;29;20794;-74
2022/09/24 12:38:29;;;;;;;9.23;1.27;;;14.50;99.90;;;;;;4888965;28;20547;-76
2022/09/24 12:41:10;;;;;;;3.42;0.65;;;14.50;99.90;;;;;;4923747;28;20051;-77
2022/09/24 12:43:51;;;;;;;6.22;0.50;;;14.50;99.90;;;;;;4910305;29;20072;-80
2022/09/24 12:46:24;;;;;;;5.18;0.57;;;14.60;99.90;;;;;;4910181;29;20040;-79
2022/09/24 12:48:53;;;;;;;8.10;0.88;;;14.50;99.90;;;;;;4905654;29;20044;-79
2022/09/24 12:51:21;;;;;;;7.45;0.60;;;14.50;99.90;;;;;;4908572;29;20048;-78
2022/09/24 12:54:07;;;;;;;13.98;9.10;;;14.50;99.90;;;;;;4907264;29;20574;-80
2022/09/24 12:56:34;;;;;;;10.65;5.55;;;14.50;99.90;;;;;;4908632;29;20044;-76
2022/09/24 12:59:03;;;;;;;4.93;0.80;;;14.40;99.90;;;;;;4892577;29;20052;-83
2022/09/24 13:01:30;;;;;;;4.35;0.68;;;14.40;99.90;;;;;;4908124;28;20040;-80
2022/09/24 13:04:26;;;;;;;7.07;1.02;;;14.40;99.90;;;;;;4909861;29;20155;-78
2022/09/24 13:06:53;;;;;;;9.15;0.85;;;14.30;99.90;;;;;;4907949;28;20426;-78
2022/09/24 13:09:38;;;;;;;5.72;0.70;;;14.30;99.90;;;;;;4892179;29;20044;-78
2022/09/24 13:12:16;;;;;;;9.25;1.25;;;14.30;99.90;;;;;;4904930;28;20048;-78
2022/09/24 13:14:55;;;;;;;9.07;0.95;;;14.30;99.90;;;;;;4901717;28;20103;-81
2022/09/24 13:17:21;;;;;;;3.92;0.88;;;14.30;99.90;;;;;;4906963;28;20047;-79
2022/09/24 13:19:54;;;;;;;6.63;1.42;;;14.30;99.90;;;;;;4912425;28;20115;-76
2022/09/24 13:22:32;;;;;;;4.00;0.68;;;14.20;99.90;;;;;;4907206;28;20055;-79